createdAt,value
2022-10-31T00:02:06.580Z,12.56
2022-10-31T00:04:52.578Z,12.22
2022-10-31T00:07:39.627Z,12.44
2022-10-31T00:10:26.357Z,12.09
2022-10-31T00:13:12.361Z,12.76
2022-10-31T00:15:58.807Z,13.52
2022-10-31T00:18:44.843Z,13.78
2022-10-31T00:21:31.653Z,13.86
2022-10-31T00:24:18.164Z,14.07
2022-10-31T00:27:04.731Z,13.90
2022-10-31T00:29:50.369Z,14.17
2022-10-31T00:32:36.827Z,14.21
2022-10-31T00:35:22.881Z,13.80
2022-10-31T00:38:09.317Z,13.55
2022-10-31T00:40:55.764Z,12.00
2022-10-31T00:43:43.327Z,12.33
2022-10-31T00:46:29.125Z,12.74
2022-10-31T00:49:15.866Z,12.87
2022-10-31T00:52:02.631Z,13.58
2022-10-31T00:54:50.094Z,14.01
2022-10-31T00:57:36.215Z,13.82
2022-10-31T01:00:24.041Z,13.86
2022-10-31T01:03:10.108Z,14.10
2022-10-31T01:06:06.271Z,14.20
2022-10-31T01:08:53.598Z,14.37
2022-10-31T01:11:40.196Z,13.86
2022-10-31T01:14:26.686Z,12.76
2022-10-31T01:17:16.416Z,13.30
2022-10-31T01:20:05.718Z,12.80
2022-10-31T01:22:52.159Z,12.52
2022-10-31T01:25:38.236Z,12.80
2022-10-31T01:31:10.467Z,13.42
2022-10-31T01:33:56.804Z,13.04
2022-10-31T01:36:42.703Z,13.82
2022-10-31T01:39:32.084Z,14.04
2022-10-31T01:42:23.005Z,13.91
2022-10-31T01:45:10.816Z,14.18
2022-10-31T01:47:57.018Z,13.45
2022-10-31T01:50:43.627Z,12.77
2022-10-31T01:53:29.831Z,13.55
2022-10-31T01:56:16.141Z,13.43
2022-10-31T01:59:02.457Z,13.61
2022-10-31T02:01:49.063Z,13.83
2022-10-31T02:04:36.507Z,14.23
2022-10-31T02:07:38.046Z,13.98
2022-10-31T02:10:24.549Z,13.92
2022-10-31T02:13:12.051Z,13.32
2022-10-31T02:15:59.754Z,12.75
2022-10-31T02:18:45.689Z,13.27
2022-10-31T02:21:41.224Z,13.89
2022-10-31T02:24:45.786Z,14.02
2022-10-31T02:27:47.488Z,13.85
2022-10-31T02:30:53.605Z,14.15
2022-10-31T02:33:42.590Z,14.17
2022-10-31T02:36:40.129Z,12.48
2022-10-31T02:39:31.793Z,13.67
2022-10-31T02:42:20.016Z,13.84
2022-10-31T02:45:11.217Z,13.30
2022-10-31T02:47:59.694Z,13.57
2022-10-31T02:50:48.444Z,13.62
2022-10-31T02:53:35.142Z,13.54
2022-10-31T02:56:21.385Z,13.40
2022-10-31T02:59:09.472Z,13.77
2022-10-31T03:01:59.268Z,13.68
2022-10-31T03:04:50.985Z,13.81
2022-10-31T03:07:52.455Z,13.89
2022-10-31T03:10:47.386Z,13.64
2022-10-31T03:13:33.559Z,13.81
2022-10-31T03:16:19.429Z,12.84
2022-10-31T03:19:10.809Z,12.86
2022-10-31T03:21:58.453Z,13.59
2022-10-31T03:24:44.757Z,13.79
2022-10-31T03:27:31.291Z,13.58
2022-10-31T03:30:18.909Z,13.81
2022-10-31T03:33:07.462Z,13.70
2022-10-31T03:35:54.346Z,13.97
2022-10-31T03:38:41.760Z,13.86
2022-10-31T03:41:29.136Z,14.10
2022-10-31T03:44:16.839Z,14.16
2022-10-31T03:47:04.437Z,14.17
2022-10-31T03:49:50.229Z,14.16
2022-10-31T03:52:48.218Z,13.97
2022-10-31T03:55:39.147Z,13.96
2022-10-31T03:58:27.278Z,13.54
2022-10-31T04:01:15.355Z,13.03
2022-10-31T04:04:01.992Z,13.66
2022-10-31T04:06:49.294Z,13.31
2022-10-31T04:09:36.373Z,13.71
2022-10-31T04:12:23.481Z,13.85
2022-10-31T04:15:11.682Z,14.02
2022-10-31T04:17:59.982Z,14.00
2022-10-31T04:20:46.477Z,14.12
2022-10-31T04:23:32.676Z,13.90
2022-10-31T04:26:19.346Z,14.10
2022-10-31T04:29:06.337Z,14.05
2022-10-31T04:31:52.792Z,13.75
2022-10-31T04:34:38.605Z,13.46
2022-10-31T04:37:25.538Z,13.21
2022-10-31T04:40:12.526Z,13.79
2022-10-31T04:43:00.847Z,13.49
2022-10-31T04:45:49.103Z,12.34
2022-10-31T04:48:37.216Z,13.34
2022-10-31T04:51:26.523Z,13.48
2022-10-31T04:54:13.314Z,13.82
2022-10-31T04:57:00.961Z,13.19
2022-10-31T04:59:48.925Z,13.60
2022-10-31T05:02:44.523Z,12.95
2022-10-31T05:05:33.340Z,12.27
2022-10-31T05:08:19.395Z,12.36
2022-10-31T05:11:06.276Z,12.91
2022-10-31T05:13:53.197Z,13.32
2022-10-31T05:16:41.074Z,13.63
2022-10-31T05:19:29.292Z,13.87
2022-10-31T05:22:19.100Z,13.87
2022-10-31T05:25:05.536Z,14.08
2022-10-31T05:27:55.930Z,13.49
2022-10-31T05:30:42.605Z,12.36
2022-10-31T05:33:29.506Z,12.17
2022-10-31T05:36:23.982Z,13.44
2022-10-31T05:39:11.052Z,13.29
2022-10-31T05:41:59.137Z,13.77
2022-10-31T05:44:46.536Z,12.59
2022-10-31T05:47:32.816Z,12.51
2022-10-31T05:50:24.155Z,13.40
2022-10-31T05:53:12.552Z,13.49
2022-10-31T05:56:05.177Z,13.42
2022-10-31T05:58:53.595Z,13.60
2022-10-31T06:01:41.428Z,13.71
2022-10-31T06:04:32.614Z,13.48
2022-10-31T06:07:21.172Z,13.79
2022-10-31T06:10:09.355Z,13.84
2022-10-31T06:12:56.778Z,13.70
2022-10-31T06:15:43.364Z,14.16
2022-10-31T06:18:36.327Z,13.81
2022-10-31T06:21:24.043Z,13.06
2022-10-31T06:24:18.117Z,13.91
2022-10-31T06:27:08.448Z,12.78
2022-10-31T06:29:57.169Z,13.60
2022-10-31T06:32:47.532Z,13.46
2022-10-31T06:35:34.380Z,13.28
2022-10-31T06:38:23.479Z,13.46
2022-10-31T06:41:17.527Z,13.17
2022-10-31T06:44:12.432Z,13.26
2022-10-31T06:47:04.178Z,13.34
2022-10-31T06:49:58.308Z,13.89
2022-10-31T06:52:50.184Z,13.58
2022-10-31T06:55:41.142Z,13.13
2022-10-31T06:58:38.233Z,13.76
2022-10-31T07:01:29.438Z,13.38
2022-10-31T07:04:27.191Z,13.61
2022-10-31T07:07:14.408Z,13.47
2022-10-31T07:10:06.554Z,13.38
2022-10-31T07:13:00.628Z,13.86
2022-10-31T07:16:03.616Z,13.49
2022-10-31T07:18:52.144Z,13.56
2022-10-31T07:21:39.708Z,13.96
2022-10-31T07:24:27.382Z,13.78
2022-10-31T07:27:17.564Z,13.57
2022-10-31T07:30:06.220Z,14.20
2022-10-31T07:32:58.351Z,14.03
2022-10-31T07:35:50.168Z,14.22
2022-10-31T07:38:39.211Z,14.07
2022-10-31T07:41:31.364Z,14.17
2022-10-31T07:44:25.309Z,14.28
2022-10-31T07:47:25.235Z,14.40
2022-10-31T07:50:23.168Z,14.19
2022-10-31T07:53:19.414Z,14.42
2022-10-31T07:56:07.772Z,13.77
2022-10-31T07:59:00.479Z,13.78
2022-10-31T08:01:48.188Z,12.66
2022-10-31T08:04:45.181Z,13.95
2022-10-31T08:07:39.193Z,13.21
2022-10-31T08:10:34.186Z,11.97
2022-10-31T08:13:23.537Z,12.69
2022-10-31T08:16:17.178Z,13.64
2022-10-31T08:19:14.584Z,13.93
2022-10-31T08:22:05.182Z,14.16
2022-10-31T08:25:19.161Z,13.52
2022-10-31T08:28:07.157Z,12.22
2022-10-31T08:30:56.189Z,13.58
2022-10-31T08:33:47.594Z,13.42
2022-10-31T08:36:40.243Z,13.80
2022-10-31T08:39:34.639Z,12.76
2022-10-31T08:42:27.175Z,13.12
2022-10-31T08:45:24.169Z,13.58
2022-10-31T08:48:14.210Z,14.05
2022-10-31T08:51:02.628Z,14.07
2022-10-31T08:53:51.678Z,14.26
2022-10-31T08:56:51.156Z,14.32
2022-10-31T08:59:49.553Z,14.60
2022-10-31T09:02:39.499Z,14.58
2022-10-31T09:05:27.116Z,14.73
2022-10-31T09:08:21.205Z,14.39
2022-10-31T09:11:09.909Z,14.44
2022-10-31T09:17:01.082Z,14.62
2022-10-31T09:19:57.384Z,14.67
2022-10-31T09:22:55.522Z,14.82
2022-10-31T09:25:50.792Z,14.72
2022-10-31T09:28:49.180Z,14.25
2022-10-31T09:31:44.791Z,14.85
2022-10-31T09:34:33.286Z,14.85
2022-10-31T09:37:19.561Z,14.68
2022-10-31T09:40:13.365Z,14.15
2022-10-31T09:43:11.183Z,14.39
2022-10-31T09:46:02.935Z,14.76
2022-10-31T09:49:03.503Z,14.32
2022-10-31T09:52:03.833Z,14.73
2022-10-31T09:54:53.789Z,14.77
2022-10-31T09:57:44.341Z,14.60
2022-10-31T10:00:34.437Z,14.66
2022-10-31T10:03:33.145Z,14.84
2022-10-31T10:06:24.314Z,14.67
2022-10-31T10:09:26.329Z,14.78
2022-10-31T10:12:27.475Z,14.61
2022-10-31T10:15:24.991Z,14.61
2022-10-31T10:18:30.051Z,14.76
2022-10-31T10:21:29.711Z,14.74
2022-10-31T10:24:27.436Z,14.67
2022-10-31T10:27:20.681Z,14.90
2022-10-31T10:30:18.928Z,14.24
2022-10-31T10:33:09.823Z,14.04
2022-10-31T10:36:01.420Z,14.29
2022-10-31T10:38:52.656Z,13.75
2022-10-31T10:41:45.781Z,14.51
2022-10-31T10:45:00.401Z,14.43
2022-10-31T10:47:55.539Z,14.64
2022-10-31T10:50:48.885Z,14.56
2022-10-31T10:53:38.164Z,14.43
2022-10-31T10:59:46.277Z,14.98
2022-10-31T11:02:34.293Z,14.67
2022-10-31T11:05:25.947Z,15.04
2022-10-31T11:08:28.144Z,14.75
2022-10-31T11:11:20.147Z,14.98
2022-10-31T11:14:20.214Z,14.87
2022-10-31T11:17:12.132Z,15.09
2022-10-31T11:20:07.166Z,14.91
2022-10-31T11:23:02.428Z,14.76
2022-10-31T11:25:52.203Z,14.93
2022-10-31T11:28:42.166Z,14.65
2022-10-31T11:31:34.018Z,14.72
2022-10-31T11:34:43.322Z,14.60
2022-10-31T11:37:33.215Z,14.92
2022-10-31T11:40:25.558Z,14.26
2022-10-31T11:43:15.167Z,14.39
2022-10-31T11:46:20.182Z,14.61
2022-10-31T11:49:21.170Z,15.00
2022-10-31T11:52:21.067Z,14.90
2022-10-31T11:55:15.357Z,14.75
2022-10-31T11:58:04.676Z,14.64
2022-10-31T12:01:00.206Z,14.26
2022-10-31T12:03:51.783Z,14.75
2022-10-31T12:06:51.204Z,14.92
2022-10-31T12:09:40.082Z,14.79
2022-10-31T12:12:30.185Z,14.92
2022-10-31T12:15:34.449Z,14.39
2022-10-31T12:18:30.704Z,14.69
2022-10-31T12:21:24.971Z,14.82
2022-10-31T12:24:27.661Z,15.07
2022-10-31T12:27:34.436Z,14.75
2022-10-31T12:30:32.153Z,14.61
2022-10-31T12:33:27.619Z,14.87
2022-10-31T12:36:22.257Z,14.74
2022-10-31T12:39:19.513Z,14.74
2022-10-31T12:42:23.384Z,14.08
2022-10-31T12:45:14.370Z,14.17
2022-10-31T12:48:06.805Z,14.82
2022-10-31T12:51:12.012Z,14.99
2022-10-31T12:54:18.466Z,14.77
2022-10-31T12:57:17.248Z,14.30
2022-10-31T13:00:06.909Z,14.43
2022-10-31T13:03:02.152Z,14.60
2022-10-31T13:05:58.091Z,14.24
2022-10-31T13:09:09.173Z,13.41
2022-10-31T13:12:03.802Z,14.29
2022-10-31T13:14:54.457Z,14.68
2022-10-31T13:17:43.610Z,13.89
2022-10-31T13:23:49.840Z,14.24
2022-10-31T13:26:44.188Z,14.31
2022-10-31T13:29:36.125Z,14.82
2022-10-31T13:32:25.088Z,14.61
2022-10-31T13:35:16.334Z,14.72
2022-10-31T13:38:13.670Z,14.75
2022-10-31T13:41:13.131Z,14.61
2022-10-31T13:44:27.191Z,14.64
2022-10-31T13:47:23.258Z,14.74
2022-10-31T13:50:33.148Z,14.63
2022-10-31T13:53:22.272Z,14.17
2022-10-31T13:56:09.898Z,14.58
2022-10-31T13:59:04.196Z,14.50
2022-10-31T14:05:01.639Z,14.27
2022-10-31T14:07:48.269Z,14.42
2022-10-31T14:10:39.244Z,14.04
2022-10-31T14:13:35.808Z,14.53
2022-10-31T14:16:26.679Z,14.69
2022-10-31T14:19:18.195Z,14.50
2022-10-31T14:22:20.577Z,14.36
2022-10-31T14:25:29.451Z,14.30
2022-10-31T14:28:35.243Z,14.18
2022-10-31T14:31:28.184Z,14.48
2022-10-31T14:34:23.121Z,14.20
2022-10-31T14:37:31.209Z,14.36
2022-10-31T14:40:23.182Z,14.00
2022-10-31T14:43:48.515Z,14.48
2022-10-31T14:47:05.250Z,13.50
2022-10-31T14:50:03.359Z,13.88
2022-10-31T14:52:54.173Z,14.05
2022-10-31T14:55:51.158Z,14.24
2022-10-31T14:58:45.172Z,14.16
2022-10-31T15:01:43.335Z,14.30
2022-10-31T15:04:35.492Z,13.72
2022-10-31T15:07:34.981Z,14.30
2022-10-31T15:10:35.957Z,14.28
2022-10-31T15:13:24.676Z,14.00
2022-10-31T15:16:13.346Z,14.48
2022-10-31T15:19:10.199Z,14.24
2022-10-31T15:22:08.187Z,14.02
2022-10-31T15:25:03.504Z,14.13
2022-10-31T15:27:52.236Z,14.36
2022-10-31T15:30:53.187Z,13.93
2022-10-31T15:33:49.076Z,14.05
2022-10-31T15:36:46.130Z,14.19
2022-10-31T15:39:36.615Z,14.23
2022-10-31T15:42:34.421Z,14.30
2022-10-31T15:45:26.163Z,14.23
2022-10-31T15:48:20.463Z,13.89
2022-10-31T15:51:15.736Z,13.82
2022-10-31T15:54:06.441Z,13.97
2022-10-31T15:56:54.117Z,13.03
2022-10-31T15:59:54.231Z,13.48
2022-10-31T16:02:44.236Z,13.16
2022-10-31T16:05:37.577Z,13.75
2022-10-31T16:08:33.477Z,13.79
2022-10-31T16:11:24.160Z,13.84
2022-10-31T16:14:25.287Z,13.73
2022-10-31T16:17:20.169Z,13.44
2022-10-31T16:20:20.356Z,13.09
2022-10-31T16:23:13.211Z,13.15
2022-10-31T16:25:59.947Z,13.58
2022-10-31T16:29:03.322Z,13.21
2022-10-31T16:31:58.835Z,13.54
2022-10-31T16:35:25.201Z,13.93
2022-10-31T16:38:24.718Z,13.52
2022-10-31T16:41:30.206Z,13.68
2022-10-31T16:44:22.087Z,13.49
2022-10-31T16:47:26.035Z,13.64
2022-10-31T16:50:23.847Z,13.85
2022-10-31T16:53:17.221Z,13.26
2022-10-31T16:56:06.432Z,13.66
2022-10-31T16:59:06.268Z,13.39
2022-10-31T17:01:54.509Z,13.49
2022-10-31T17:04:52.166Z,13.53
2022-10-31T17:07:50.148Z,13.51
2022-10-31T17:10:36.658Z,13.50
2022-10-31T17:13:24.639Z,13.34
2022-10-31T17:16:23.305Z,13.22
2022-10-31T17:19:15.992Z,13.34
2022-10-31T17:22:15.227Z,13.55
2022-10-31T17:25:02.585Z,13.42
2022-10-31T17:27:57.211Z,13.70
2022-10-31T17:30:49.175Z,13.73
2022-10-31T17:33:40.169Z,13.77
2022-10-31T17:36:29.285Z,13.23
2022-10-31T17:39:23.109Z,13.22
2022-10-31T17:42:12.468Z,13.54
2022-10-31T17:45:09.359Z,13.32
2022-10-31T17:51:06.133Z,13.22
2022-10-31T17:56:56.261Z,12.90
2022-10-31T17:59:52.495Z,13.26
2022-10-31T18:02:43.628Z,13.33
2022-10-31T18:05:33.172Z,12.84
2022-10-31T18:08:32.137Z,13.13
2022-10-31T18:14:20.362Z,13.12
2022-10-31T18:17:08.204Z,13.18
2022-10-31T18:20:10.208Z,13.23
2022-10-31T18:23:06.148Z,13.16
2022-10-31T18:26:02.524Z,13.25
2022-10-31T18:28:56.209Z,13.23
2022-10-31T18:31:52.197Z,13.26
2022-10-31T18:34:41.432Z,12.92
2022-10-31T18:37:37.165Z,12.94
2022-10-31T18:40:25.399Z,12.75
2022-10-31T18:43:19.135Z,13.03
2022-10-31T18:49:11.571Z,13.40
2022-10-31T18:52:11.217Z,13.28
2022-10-31T18:55:05.634Z,13.42
2022-10-31T18:57:53.260Z,12.68
2022-10-31T19:00:40.817Z,13.33
2022-10-31T19:03:28.150Z,12.87
2022-10-31T19:06:23.399Z,12.93
2022-10-31T19:09:20.458Z,13.20
2022-10-31T19:12:24.147Z,13.22
2022-10-31T19:15:13.228Z,13.50
2022-10-31T19:18:17.181Z,12.71
2022-10-31T19:21:10.179Z,13.43
2022-10-31T19:24:04.355Z,13.10
2022-10-31T19:29:45.065Z,13.26
2022-10-31T19:32:45.625Z,13.58
2022-10-31T19:35:34.207Z,12.36
2022-10-31T19:38:35.143Z,13.24
2022-10-31T19:41:29.345Z,13.21
2022-10-31T19:44:17.205Z,12.67
2022-10-31T19:47:05.130Z,12.66
2022-10-31T19:49:53.984Z,13.01
2022-10-31T19:52:41.405Z,12.78
2022-10-31T19:55:31.428Z,12.68
2022-10-31T19:58:21.128Z,12.27
2022-10-31T20:01:16.253Z,12.85
2022-10-31T20:07:20.496Z,12.96
2022-10-31T20:10:21.174Z,12.72
2022-10-31T20:13:10.969Z,13.13
2022-10-31T20:16:04.436Z,12.43
2022-10-31T20:18:57.032Z,12.97
2022-10-31T20:21:52.145Z,12.39
2022-10-31T20:24:51.907Z,12.52
2022-10-31T20:27:42.408Z,12.75
2022-10-31T20:30:32.155Z,12.81
2022-10-31T20:33:19.194Z,12.61
2022-10-31T20:36:14.895Z,13.13
2022-10-31T20:39:04.429Z,12.99
2022-10-31T20:41:55.635Z,12.99
2022-10-31T20:44:43.330Z,13.00
2022-10-31T20:47:33.756Z,12.38
2022-10-31T20:50:23.595Z,12.30
2022-10-31T20:53:11.418Z,12.93
2022-10-31T20:56:07.236Z,12.94
2022-10-31T20:59:12.640Z,12.81
2022-10-31T21:02:06.300Z,12.75
2022-10-31T21:04:53.558Z,12.87
2022-10-31T21:07:41.673Z,12.90
2022-10-31T21:10:28.888Z,12.80
2022-10-31T21:13:18.464Z,12.75
2022-10-31T21:16:13.377Z,12.93
2022-10-31T21:19:14.754Z,13.11
2022-10-31T21:22:09.212Z,13.03
2022-10-31T21:24:56.573Z,13.03
2022-10-31T21:27:44.136Z,12.77
2022-10-31T21:30:33.035Z,12.95
2022-10-31T21:33:19.158Z,13.07
2022-10-31T21:36:06.211Z,12.98
2022-10-31T21:38:52.917Z,13.19
2022-10-31T21:44:34.147Z,13.11
2022-10-31T21:47:20.958Z,13.07
2022-10-31T21:50:09.271Z,13.10
2022-10-31T21:52:56.886Z,12.82
2022-10-31T21:55:45.645Z,12.40
2022-10-31T21:58:34.826Z,12.91
2022-10-31T22:01:25.990Z,12.55
2022-10-31T22:04:19.247Z,12.31
2022-10-31T22:07:06.576Z,12.36
2022-10-31T22:09:54.922Z,12.81
2022-10-31T22:12:41.063Z,12.43
2022-10-31T22:15:27.501Z,11.98
2022-10-31T22:18:14.540Z,12.63
2022-10-31T22:21:09.097Z,12.89
2022-10-31T22:23:56.570Z,12.49
2022-10-31T22:26:43.872Z,12.49
2022-10-31T22:29:30.616Z,12.33
2022-10-31T22:32:17.227Z,12.93
2022-10-31T22:35:03.518Z,12.92
2022-10-31T22:37:50.119Z,12.77
2022-10-31T22:40:36.830Z,12.83
2022-10-31T22:43:25.156Z,12.89
2022-10-31T22:46:12.573Z,12.88
2022-10-31T22:49:00.269Z,12.91
2022-10-31T22:51:46.891Z,13.07
2022-10-31T22:54:32.960Z,13.19
2022-10-31T22:57:19.000Z,13.32
2022-10-31T23:00:06.142Z,12.74
2022-10-31T23:02:51.956Z,12.45
2022-10-31T23:05:38.789Z,12.04
2022-10-31T23:08:25.882Z,12.21
2022-10-31T23:11:21.156Z,12.43
2022-10-31T23:14:15.398Z,12.63
2022-10-31T23:17:03.524Z,13.02
2022-10-31T23:19:49.350Z,12.50
2022-10-31T23:22:35.774Z,12.62
2022-10-31T23:25:40.497Z,13.20
2022-10-31T23:28:27.312Z,12.82
2022-10-31T23:31:13.822Z,12.28
2022-10-31T23:34:00.474Z,12.82
2022-10-31T23:36:47.203Z,13.01
2022-10-31T23:39:34.283Z,12.75
2022-10-31T23:42:20.511Z,13.15
2022-10-31T23:45:07.323Z,12.97
2022-10-31T23:47:54.532Z,13.09
2022-10-31T23:50:41.038Z,13.00
2022-10-31T23:53:27.001Z,12.54
2022-10-31T23:56:17.110Z,12.92
2022-10-31T23:59:05.345Z,13.10
